sensor_id;sensor_type;location;lat;lon;timestamp;P1;durP1;ratioP1;P2;durP2;ratioP2
68379;SDS011;57711;53.196;19.638;2023-03-01T00:01:10;217.50;;;121.80;;
68379;SDS011;57711;53.196;19.638;2023-03-01T00:03:39;82.80;;;40.10;;
68379;SDS011;57711;53.196;19.638;2023-03-01T00:06:07;87.80;;;42.80;;
68379;SDS011;57711;53.196;19.638;2023-03-01T00:08:35;90.40;;;47.20;;
68379;SDS011;57711;53.196;19.638;2023-03-01T00:11:04;65.90;;;32.20;;
68379;SDS011;57711;53.196;19.638;2023-03-01T00:13:31;62.80;;;33.60;;
68379;SDS011;57711;53.196;19.638;2023-03-01T00:15:59;61.90;;;31.80;;
68379;SDS011;57711;53.196;19.638;2023-03-01T00:18:29;60.20;;;33.00;;
68379;SDS011;57711;53.196;19.638;2023-03-01T00:20:56;71.00;;;38.10;;
68379;SDS011;57711;53.196;19.638;2023-03-01T00:23:24;68.60;;;38.40;;
68379;SDS011;57711;53.196;19.638;2023-03-01T00:25:51;67.60;;;34.00;;
68379;SDS011;57711;53.196;19.638;2023-03-01T00:28:18;65.70;;;33.10;;
68379;SDS011;57711;53.196;19.638;2023-03-01T00:30:46;79.40;;;37.60;;
68379;SDS011;57711;53.196;19.638;2023-03-01T00:33:14;76.80;;;35.30;;
68379;SDS011;57711;53.196;19.638;2023-03-01T00:35:41;96.90;;;47.20;;
68379;SDS011;57711;53.196;19.638;2023-03-01T00:38:08;86.20;;;43.50;;
68379;SDS011;57711;53.196;19.638;2023-03-01T00:40:36;93.00;;;44.80;;
68379;SDS011;57711;53.196;19.638;2023-03-01T00:43:03;174.20;;;80.50;;
68379;SDS011;57711;53.196;19.638;2023-03-01T00:45:31;93.80;;;45.10;;
68379;SDS011;57711;53.196;19.638;2023-03-01T00:47:59;75.30;;;37.80;;
68379;SDS011;57711;53.196;19.638;2023-03-01T00:50:27;81.60;;;37.00;;
68379;SDS011;57711;53.196;19.638;2023-03-01T00:52:54;77.70;;;37.00;;
68379;SDS011;57711;53.196;19.638;2023-03-01T00:55:22;76.60;;;39.00;;
68379;SDS011;57711;53.196;19.638;2023-03-01T00:57:51;85.10;;;42.20;;
68379;SDS011;57711;53.196;19.638;2023-03-01T01:00:18;83.90;;;41.00;;
68379;SDS011;57711;53.196;19.638;2023-03-01T01:02:46;77.50;;;38.50;;
68379;SDS011;57711;53.196;19.638;2023-03-01T01:05:14;72.60;;;36.00;;
68379;SDS011;57711;53.196;19.638;2023-03-01T01:07:41;76.90;;;36.40;;
68379;SDS011;57711;53.196;19.638;2023-03-01T01:10:08;70.50;;;34.70;;
68379;SDS011;57711;53.196;19.638;2023-03-01T01:12:40;69.50;;;33.50;;
68379;SDS011;57711;53.196;19.638;2023-03-01T01:15:07;70.60;;;34.60;;
68379;SDS011;57711;53.196;19.638;2023-03-01T01:17:34;68.20;;;35.50;;
68379;SDS011;57711;53.196;19.638;2023-03-01T01:20:02;68.10;;;33.90;;
68379;SDS011;57711;53.196;19.638;2023-03-01T01:22:29;58.70;;;30.30;;
68379;SDS011;57711;53.196;19.638;2023-03-01T01:24:56;59.30;;;29.70;;
68379;SDS011;57711;53.196;19.638;2023-03-01T01:27:24;49.10;;;25.70;;
68379;SDS011;57711;53.196;19.638;2023-03-01T01:29:52;61.60;;;31.00;;
68379;SDS011;57711;53.196;19.638;2023-03-01T01:32:20;70.30;;;32.40;;
68379;SDS011;57711;53.196;19.638;2023-03-01T01:34:47;68.70;;;33.80;;
68379;SDS011;57711;53.196;19.638;2023-03-01T01:37:14;74.90;;;34.70;;
68379;SDS011;57711;53.196;19.638;2023-03-01T01:39:41;73.60;;;35.30;;
68379;SDS011;57711;53.196;19.638;2023-03-01T01:42:12;76.60;;;34.30;;
68379;SDS011;57711;53.196;19.638;2023-03-01T01:44:45;90.60;;;39.50;;
68379;SDS011;57711;53.196;19.638;2023-03-01T01:47:17;176.50;;;67.30;;
68379;SDS011;57711;53.196;19.638;2023-03-01T01:49:49;173.50;;;68.50;;
68379;SDS011;57711;53.196;19.638;2023-03-01T01:52:21;142.50;;;59.30;;
68379;SDS011;57711;53.196;19.638;2023-03-01T01:54:54;128.40;;;51.00;;
68379;SDS011;57711;53.196;19.638;2023-03-01T01:59:57;139.10;;;57.50;;
68379;SDS011;57711;53.196;19.638;2023-03-01T02:02:27;140.20;;;56.90;;
68379;SDS011;57711;53.196;19.638;2023-03-01T02:05:03;153.40;;;65.30;;
68379;SDS011;57711;53.196;19.638;2023-03-01T02:07:38;133.60;;;58.20;;
68379;SDS011;57711;53.196;19.638;2023-03-01T02:10:07;119.40;;;54.60;;
68379;SDS011;57711;53.196;19.638;2023-03-01T02:12:35;184.70;;;79.70;;
68379;SDS011;57711;53.196;19.638;2023-03-01T02:15:04;145.70;;;63.90;;
68379;SDS011;57711;53.196;19.638;2023-03-01T02:17:32;106.10;;;48.60;;
68379;SDS011;57711;53.196;19.638;2023-03-01T02:20:11;91.50;;;40.80;;
68379;SDS011;57711;53.196;19.638;2023-03-01T02:22:41;79.60;;;37.10;;
68379;SDS011;57711;53.196;19.638;2023-03-01T02:30:40;56.90;;;31.30;;
68379;SDS011;57711;53.196;19.638;2023-03-01T02:33:31;63.40;;;30.10;;
68379;SDS011;57711;53.196;19.638;2023-03-01T02:36:00;59.80;;;27.30;;
68379;SDS011;57711;53.196;19.638;2023-03-01T02:38:31;57.30;;;27.30;;
68379;SDS011;57711;53.196;19.638;2023-03-01T02:40:58;64.40;;;33.10;;
68379;SDS011;57711;53.196;19.638;2023-03-01T02:43:31;63.30;;;32.10;;
68379;SDS011;57711;53.196;19.638;2023-03-01T02:46:06;65.00;;;29.90;;
68379;SDS011;57711;53.196;19.638;2023-03-01T02:48:46;63.00;;;29.30;;
68379;SDS011;57711;53.196;19.638;2023-03-01T02:56:20;76.20;;;36.80;;
68379;SDS011;57711;53.196;19.638;2023-03-01T02:58:48;75.20;;;36.90;;
68379;SDS011;57711;53.196;19.638;2023-03-01T03:01:19;76.70;;;39.10;;
68379;SDS011;57711;53.196;19.638;2023-03-01T03:03:46;69.70;;;37.10;;
68379;SDS011;57711;53.196;19.638;2023-03-01T03:06:14;61.10;;;33.70;;
68379;SDS011;57711;53.196;19.638;2023-03-01T03:08:41;59.00;;;30.00;;
68379;SDS011;57711;53.196;19.638;2023-03-01T03:11:09;59.50;;;30.20;;
68379;SDS011;57711;53.196;19.638;2023-03-01T03:13:36;53.70;;;29.00;;
68379;SDS011;57711;53.196;19.638;2023-03-01T03:16:03;59.90;;;26.50;;
68379;SDS011;57711;53.196;19.638;2023-03-01T03:18:31;54.70;;;26.20;;
68379;SDS011;57711;53.196;19.638;2023-03-01T03:20:58;49.90;;;25.20;;
68379;SDS011;57711;53.196;19.638;2023-03-01T03:23:25;49.40;;;25.20;;
68379;SDS011;57711;53.196;19.638;2023-03-01T03:25:52;49.50;;;24.20;;
68379;SDS011;57711;53.196;19.638;2023-03-01T03:28:19;44.20;;;23.50;;
68379;SDS011;57711;53.196;19.638;2023-03-01T03:30:46;44.20;;;22.60;;
68379;SDS011;57711;53.196;19.638;2023-03-01T03:33:14;46.10;;;22.20;;
68379;SDS011;57711;53.196;19.638;2023-03-01T03:35:42;42.70;;;23.10;;
68379;SDS011;57711;53.196;19.638;2023-03-01T03:38:12;43.80;;;24.00;;
68379;SDS011;57711;53.196;19.638;2023-03-01T03:40:47;53.60;;;26.40;;
68379;SDS011;57711;53.196;19.638;2023-03-01T03:43:17;49.70;;;26.30;;
68379;SDS011;57711;53.196;19.638;2023-03-01T03:45:50;54.50;;;26.40;;
68379;SDS011;57711;53.196;19.638;2023-03-01T03:48:18;54.40;;;27.70;;
68379;SDS011;57711;53.196;19.638;2023-03-01T03:50:49;58.10;;;28.70;;
68379;SDS011;57711;53.196;19.638;2023-03-01T03:53:17;54.90;;;27.10;;
68379;SDS011;57711;53.196;19.638;2023-03-01T03:55:45;55.00;;;27.70;;
68379;SDS011;57711;53.196;19.638;2023-03-01T03:58:16;60.00;;;29.00;;
68379;SDS011;57711;53.196;19.638;2023-03-01T04:00:51;55.90;;;27.20;;
68379;SDS011;57711;53.196;19.638;2023-03-01T04:03:23;55.70;;;27.90;;
68379;SDS011;57711;53.196;19.638;2023-03-01T04:05:52;65.80;;;30.40;;
68379;SDS011;57711;53.196;19.638;2023-03-01T04:08:21;61.20;;;28.80;;
68379;SDS011;57711;53.196;19.638;2023-03-01T04:10:50;56.00;;;29.50;;
68379;SDS011;57711;53.196;19.638;2023-03-01T04:13:19;52.70;;;28.30;;
68379;SDS011;57711;53.196;19.638;2023-03-01T04:15:49;68.60;;;32.70;;
68379;SDS011;57711;53.196;19.638;2023-03-01T04:18:17;68.90;;;33.80;;
68379;SDS011;57711;53.196;19.638;2023-03-01T04:20:46;66.00;;;35.80;;
68379;SDS011;57711;53.196;19.638;2023-03-01T04:23:14;58.20;;;32.50;;
68379;SDS011;57711;53.196;19.638;2023-03-01T04:28:34;52.80;;;28.20;;
68379;SDS011;57711;53.196;19.638;2023-03-01T04:31:05;60.70;;;30.10;;
68379;SDS011;57711;53.196;19.638;2023-03-01T04:33:44;56.60;;;29.20;;
68379;SDS011;57711;53.196;19.638;2023-03-01T04:36:12;52.00;;;28.20;;
68379;SDS011;57711;53.196;19.638;2023-03-01T04:38:42;68.90;;;31.60;;
68379;SDS011;57711;53.196;19.638;2023-03-01T04:41:15;59.80;;;31.90;;
68379;SDS011;57711;53.196;19.638;2023-03-01T04:43:44;59.10;;;30.50;;
68379;SDS011;57711;53.196;19.638;2023-03-01T04:46:12;53.60;;;28.40;;
68379;SDS011;57711;53.196;19.638;2023-03-01T04:48:41;56.90;;;28.50;;
68379;SDS011;57711;53.196;19.638;2023-03-01T04:51:10;58.50;;;29.80;;
68379;SDS011;57711;53.196;19.638;2023-03-01T04:53:40;57.60;;;29.50;;
68379;SDS011;57711;53.196;19.638;2023-03-01T04:56:07;58.20;;;29.70;;
68379;SDS011;57711;53.196;19.638;2023-03-01T04:58:36;51.40;;;28.80;;
68379;SDS011;57711;53.196;19.638;2023-03-01T05:01:07;56.80;;;31.30;;
68379;SDS011;57711;53.196;19.638;2023-03-01T05:03:42;65.70;;;42.40;;
68379;SDS011;57711;53.196;19.638;2023-03-01T05:06:11;60.20;;;34.70;;
68379;SDS011;57711;53.196;19.638;2023-03-01T05:08:39;55.40;;;31.30;;
68379;SDS011;57711;53.196;19.638;2023-03-01T05:11:08;50.60;;;27.20;;
68379;SDS011;57711;53.196;19.638;2023-03-01T05:13:36;44.10;;;26.20;;
68379;SDS011;57711;53.196;19.638;2023-03-01T05:16:05;41.30;;;27.30;;
68379;SDS011;57711;53.196;19.638;2023-03-01T05:18:33;41.70;;;28.00;;
68379;SDS011;57711;53.196;19.638;2023-03-01T05:21:05;44.00;;;23.90;;
68379;SDS011;57711;53.196;19.638;2023-03-01T05:23:35;41.50;;;23.80;;
68379;SDS011;57711;53.196;19.638;2023-03-01T05:26:03;45.60;;;26.30;;
68379;SDS011;57711;53.196;19.638;2023-03-01T05:28:36;53.70;;;26.10;;
68379;SDS011;57711;53.196;19.638;2023-03-01T05:31:05;51.30;;;26.00;;
68379;SDS011;57711;53.196;19.638;2023-03-01T05:33:42;53.80;;;25.80;;
68379;SDS011;57711;53.196;19.638;2023-03-01T05:36:10;54.30;;;27.10;;
68379;SDS011;57711;53.196;19.638;2023-03-01T05:38:37;50.10;;;26.30;;
68379;SDS011;57711;53.196;19.638;2023-03-01T05:41:04;84.90;;;44.90;;
68379;SDS011;57711;53.196;19.638;2023-03-01T05:43:31;108.70;;;55.50;;
68379;SDS011;57711;53.196;19.638;2023-03-01T05:46:00;100.50;;;50.20;;
68379;SDS011;57711;53.196;19.638;2023-03-01T05:48:28;68.60;;;37.80;;
68379;SDS011;57711;53.196;19.638;2023-03-01T05:50:58;61.50;;;32.20;;
68379;SDS011;57711;53.196;19.638;2023-03-01T05:53:26;67.80;;;35.50;;
68379;SDS011;57711;53.196;19.638;2023-03-01T05:55:53;66.40;;;32.10;;
68379;SDS011;57711;53.196;19.638;2023-03-01T05:58:21;65.50;;;34.40;;
68379;SDS011;57711;53.196;19.638;2023-03-01T06:00:48;53.70;;;31.20;;
68379;SDS011;57711;53.196;19.638;2023-03-01T06:03:16;55.10;;;32.90;;
68379;SDS011;57711;53.196;19.638;2023-03-01T06:05:44;47.70;;;28.20;;
68379;SDS011;57711;53.196;19.638;2023-03-01T06:08:12;51.50;;;29.50;;
68379;SDS011;57711;53.196;19.638;2023-03-01T06:10:39;52.20;;;32.70;;
68379;SDS011;57711;53.196;19.638;2023-03-01T06:13:07;55.00;;;32.20;;
68379;SDS011;57711;53.196;19.638;2023-03-01T06:15:35;54.40;;;27.90;;
68379;SDS011;57711;53.196;19.638;2023-03-01T06:18:02;48.10;;;26.40;;
68379;SDS011;57711;53.196;19.638;2023-03-01T06:20:29;54.60;;;28.30;;
68379;SDS011;57711;53.196;19.638;2023-03-01T06:22:56;52.00;;;27.10;;
68379;SDS011;57711;53.196;19.638;2023-03-01T06:25:24;179.50;;;68.10;;
68379;SDS011;57711;53.196;19.638;2023-03-01T06:27:53;401.40;;;130.60;;
68379;SDS011;57711;53.196;19.638;2023-03-01T06:30:20;318.20;;;101.10;;
68379;SDS011;57711;53.196;19.638;2023-03-01T06:32:49;220.50;;;77.20;;
68379;SDS011;57711;53.196;19.638;2023-03-01T06:35:17;147.50;;;55.20;;
68379;SDS011;57711;53.196;19.638;2023-03-01T06:37:46;113.80;;;50.60;;
68379;SDS011;57711;53.196;19.638;2023-03-01T06:40:14;87.30;;;46.70;;
68379;SDS011;57711;53.196;19.638;2023-03-01T06:42:42;85.40;;;46.90;;
68379;SDS011;57711;53.196;19.638;2023-03-01T06:45:14;76.00;;;47.40;;
68379;SDS011;57711;53.196;19.638;2023-03-01T06:47:41;66.80;;;40.30;;
68379;SDS011;57711;53.196;19.638;2023-03-01T06:50:08;52.50;;;31.10;;
68379;SDS011;57711;53.196;19.638;2023-03-01T06:52:36;43.60;;;25.10;;
68379;SDS011;57711;53.196;19.638;2023-03-01T06:55:04;38.70;;;22.40;;
68379;SDS011;57711;53.196;19.638;2023-03-01T06:57:31;44.10;;;22.30;;
68379;SDS011;57711;53.196;19.638;2023-03-01T06:59:59;38.90;;;20.90;;
68379;SDS011;57711;53.196;19.638;2023-03-01T07:02:26;41.80;;;21.30;;
68379;SDS011;57711;53.196;19.638;2023-03-01T07:04:53;46.20;;;25.50;;
68379;SDS011;57711;53.196;19.638;2023-03-01T07:07:20;36.80;;;18.80;;
68379;SDS011;57711;53.196;19.638;2023-03-01T07:09:48;44.50;;;21.20;;
68379;SDS011;57711;53.196;19.638;2023-03-01T07:12:15;46.90;;;21.50;;
68379;SDS011;57711;53.196;19.638;2023-03-01T07:14:43;39.50;;;20.80;;
68379;SDS011;57711;53.196;19.638;2023-03-01T07:17:11;42.20;;;21.30;;
68379;SDS011;57711;53.196;19.638;2023-03-01T07:19:38;47.00;;;21.60;;
68379;SDS011;57711;53.196;19.638;2023-03-01T07:22:05;36.80;;;17.80;;
68379;SDS011;57711;53.196;19.638;2023-03-01T07:24:34;43.10;;;20.70;;
68379;SDS011;57711;53.196;19.638;2023-03-01T07:27:01;42.40;;;19.10;;
68379;SDS011;57711;53.196;19.638;2023-03-01T07:29:28;48.60;;;20.60;;
68379;SDS011;57711;53.196;19.638;2023-03-01T07:31:56;37.50;;;17.50;;
68379;SDS011;57711;53.196;19.638;2023-03-01T07:34:23;53.40;;;21.40;;
68379;SDS011;57711;53.196;19.638;2023-03-01T07:36:50;55.00;;;21.90;;
68379;SDS011;57711;53.196;19.638;2023-03-01T07:39:17;49.60;;;22.00;;
68379;SDS011;57711;53.196;19.638;2023-03-01T07:41:45;51.00;;;22.90;;
68379;SDS011;57711;53.196;19.638;2023-03-01T07:44:12;38.10;;;18.10;;
68379;SDS011;57711;53.196;19.638;2023-03-01T07:46:39;36.10;;;18.20;;
68379;SDS011;57711;53.196;19.638;2023-03-01T07:49:06;35.80;;;18.30;;
68379;SDS011;57711;53.196;19.638;2023-03-01T07:51:36;40.50;;;19.20;;
68379;SDS011;57711;53.196;19.638;2023-03-01T07:54:03;36.30;;;19.10;;
68379;SDS011;57711;53.196;19.638;2023-03-01T07:56:30;36.80;;;19.00;;
68379;SDS011;57711;53.196;19.638;2023-03-01T07:58:58;33.70;;;17.70;;
68379;SDS011;57711;53.196;19.638;2023-03-01T08:01:26;32.50;;;14.70;;
68379;SDS011;57711;53.196;19.638;2023-03-01T08:03:53;25.30;;;13.50;;
68379;SDS011;57711;53.196;19.638;2023-03-01T08:06:20;38.90;;;16.80;;
68379;SDS011;57711;53.196;19.638;2023-03-01T08:08:48;44.40;;;17.50;;
68379;SDS011;57711;53.196;19.638;2023-03-01T08:11:15;39.70;;;19.90;;
68379;SDS011;57711;53.196;19.638;2023-03-01T08:13:43;51.50;;;21.30;;
68379;SDS011;57711;53.196;19.638;2023-03-01T08:16:11;47.60;;;19.60;;
68379;SDS011;57711;53.196;19.638;2023-03-01T08:18:41;37.00;;;17.50;;
68379;SDS011;57711;53.196;19.638;2023-03-01T08:21:11;35.80;;;17.10;;
68379;SDS011;57711;53.196;19.638;2023-03-01T08:23:41;37.40;;;19.70;;
68379;SDS011;57711;53.196;19.638;2023-03-01T08:26:11;36.00;;;17.80;;
68379;SDS011;57711;53.196;19.638;2023-03-01T08:28:42;33.20;;;17.00;;
68379;SDS011;57711;53.196;19.638;2023-03-01T08:31:20;32.00;;;16.30;;
68379;SDS011;57711;53.196;19.638;2023-03-01T08:33:56;35.30;;;16.60;;
68379;SDS011;57711;53.196;19.638;2023-03-01T08:36:29;23.90;;;12.40;;
68379;SDS011;57711;53.196;19.638;2023-03-01T08:38:58;26.80;;;12.80;;
68379;SDS011;57711;53.196;19.638;2023-03-01T08:41:25;25.50;;;12.50;;
68379;SDS011;57711;53.196;19.638;2023-03-01T08:43:53;26.80;;;12.80;;
68379;SDS011;57711;53.196;19.638;2023-03-01T08:46:28;26.60;;;13.00;;
68379;SDS011;57711;53.196;19.638;2023-03-01T08:48:57;25.40;;;12.90;;
68379;SDS011;57711;53.196;19.638;2023-03-01T08:51:25;25.50;;;12.50;;
68379;SDS011;57711;53.196;19.638;2023-03-01T08:53:53;32.00;;;14.30;;
68379;SDS011;57711;53.196;19.638;2023-03-01T08:56:20;28.90;;;14.00;;
68379;SDS011;57711;53.196;19.638;2023-03-01T08:58:48;37.60;;;14.80;;
68379;SDS011;57711;53.196;19.638;2023-03-01T09:01:16;28.80;;;12.20;;
68379;SDS011;57711;53.196;19.638;2023-03-01T09:03:45;28.80;;;14.40;;
68379;SDS011;57711;53.196;19.638;2023-03-01T09:06:13;37.80;;;12.90;;
68379;SDS011;57711;53.196;19.638;2023-03-01T09:08:43;39.30;;;14.80;;
68379;SDS011;57711;53.196;19.638;2023-03-01T09:11:13;30.00;;;13.00;;
68379;SDS011;57711;53.196;19.638;2023-03-01T09:13:43;31.90;;;14.00;;
68379;SDS011;57711;53.196;19.638;2023-03-01T09:16:11;32.80;;;16.20;;
68379;SDS011;57711;53.196;19.638;2023-03-01T09:18:41;26.20;;;12.10;;
68379;SDS011;57711;53.196;19.638;2023-03-01T09:21:10;36.50;;;13.70;;
68379;SDS011;57711;53.196;19.638;2023-03-01T09:23:40;28.50;;;14.10;;
68379;SDS011;57711;53.196;19.638;2023-03-01T09:26:09;30.90;;;14.80;;
68379;SDS011;57711;53.196;19.638;2023-03-01T09:28:38;23.00;;;12.60;;
68379;SDS011;57711;53.196;19.638;2023-03-01T09:31:07;29.40;;;13.40;;
68379;SDS011;57711;53.196;19.638;2023-03-01T09:33:35;32.70;;;15.40;;
68379;SDS011;57711;53.196;19.638;2023-03-01T09:36:03;31.40;;;14.10;;
68379;SDS011;57711;53.196;19.638;2023-03-01T09:38:31;41.10;;;16.90;;
68379;SDS011;57711;53.196;19.638;2023-03-01T09:40:59;35.30;;;14.70;;
68379;SDS011;57711;53.196;19.638;2023-03-01T09:43:30;25.80;;;12.60;;
68379;SDS011;57711;53.196;19.638;2023-03-01T09:46:08;32.10;;;14.40;;
68379;SDS011;57711;53.196;19.638;2023-03-01T09:48:40;38.80;;;15.30;;
68379;SDS011;57711;53.196;19.638;2023-03-01T09:51:12;34.70;;;14.70;;
68379;SDS011;57711;53.196;19.638;2023-03-01T09:53:45;44.40;;;15.20;;
68379;SDS011;57711;53.196;19.638;2023-03-01T09:56:14;39.30;;;16.70;;
68379;SDS011;57711;53.196;19.638;2023-03-01T09:58:53;45.60;;;18.80;;
68379;SDS011;57711;53.196;19.638;2023-03-01T10:09:58;26.80;;;12.30;;
68379;SDS011;57711;53.196;19.638;2023-03-01T10:12:27;26.50;;;13.40;;
68379;SDS011;57711;53.196;19.638;2023-03-01T10:17:49;46.70;;;16.30;;
68379;SDS011;57711;53.196;19.638;2023-03-01T10:20:23;26.30;;;13.70;;
68379;SDS011;57711;53.196;19.638;2023-03-01T10:23:00;27.70;;;13.30;;
68379;SDS011;57711;53.196;19.638;2023-03-01T10:25:36;30.20;;;15.60;;
68379;SDS011;57711;53.196;19.638;2023-03-01T10:29:12;30.50;;;14.00;;
68379;SDS011;57711;53.196;19.638;2023-03-01T10:31:37;27.80;;;14.10;;
68379;SDS011;57711;53.196;19.638;2023-03-01T10:34:17;28.00;;;13.60;;
68379;SDS011;57711;53.196;19.638;2023-03-01T10:36:52;27.60;;;14.80;;
68379;SDS011;57711;53.196;19.638;2023-03-01T10:39:24;25.20;;;13.00;;
68379;SDS011;57711;53.196;19.638;2023-03-01T10:44:48;34.90;;;13.30;;
68379;SDS011;57711;53.196;19.638;2023-03-01T10:47:21;25.90;;;12.80;;
68379;SDS011;57711;53.196;19.638;2023-03-01T10:52:30;27.20;;;12.60;;
68379;SDS011;57711;53.196;19.638;2023-03-01T10:55:04;29.80;;;12.70;;
68379;SDS011;57711;53.196;19.638;2023-03-01T10:57:37;27.50;;;12.70;;
68379;SDS011;57711;53.196;19.638;2023-03-01T11:00:19;26.20;;;12.30;;
68379;SDS011;57711;53.196;19.638;2023-03-01T11:02:50;23.60;;;11.10;;
68379;SDS011;57711;53.196;19.638;2023-03-01T11:11:06;22.10;;;10.70;;
68379;SDS011;57711;53.196;19.638;2023-03-01T11:16:57;27.10;;;11.40;;
68379;SDS011;57711;53.196;19.638;2023-03-01T11:19:30;18.70;;;9.80;;
68379;SDS011;57711;53.196;19.638;2023-03-01T11:24:46;23.80;;;10.80;;
68379;SDS011;57711;53.196;19.638;2023-03-01T11:27:31;23.10;;;10.70;;
68379;SDS011;57711;53.196;19.638;2023-03-01T11:32:52;20.90;;;10.30;;
68379;SDS011;57711;53.196;19.638;2023-03-01T11:36:00;23.50;;;10.70;;
68379;SDS011;57711;53.196;19.638;2023-03-01T11:38:34;22.70;;;11.10;;
68379;SDS011;57711;53.196;19.638;2023-03-01T11:41:06;25.50;;;11.20;;
68379;SDS011;57711;53.196;19.638;2023-03-01T11:43:50;22.50;;;11.30;;
68379;SDS011;57711;53.196;19.638;2023-03-01T11:55:05;23.90;;;10.90;;
68379;SDS011;57711;53.196;19.638;2023-03-01T12:00:15;22.00;;;12.00;;
68379;SDS011;57711;53.196;19.638;2023-03-01T12:08:05;25.60;;;12.60;;
68379;SDS011;57711;53.196;19.638;2023-03-01T12:17:29;26.20;;;10.40;;
68379;SDS011;57711;53.196;19.638;2023-03-01T12:22:54;22.60;;;11.00;;
68379;SDS011;57711;53.196;19.638;2023-03-01T12:25:54;22.30;;;10.20;;
68379;SDS011;57711;53.196;19.638;2023-03-01T12:31:29;19.20;;;9.60;;
68379;SDS011;57711;53.196;19.638;2023-03-01T12:34:07;21.60;;;11.00;;
68379;SDS011;57711;53.196;19.638;2023-03-01T12:37:09;24.90;;;10.30;;
68379;SDS011;57711;53.196;19.638;2023-03-01T12:50:26;21.70;;;10.30;;
68379;SDS011;57711;53.196;19.638;2023-03-01T12:53:02;29.10;;;10.70;;
68379;SDS011;57711;53.196;19.638;2023-03-01T13:00:45;22.20;;;10.20;;
68379;SDS011;57711;53.196;19.638;2023-03-01T13:08:59;19.20;;;9.10;;
68379;SDS011;57711;53.196;19.638;2023-03-01T13:11:33;20.20;;;9.30;;
68379;SDS011;57711;53.196;19.638;2023-03-01T13:19:22;20.30;;;8.60;;
68379;SDS011;57711;53.196;19.638;2023-03-01T13:21:55;19.60;;;9.30;;
68379;SDS011;57711;53.196;19.638;2023-03-01T13:32:28;19.70;;;8.90;;
68379;SDS011;57711;53.196;19.638;2023-03-01T13:37:41;20.70;;;9.80;;
68379;SDS011;57711;53.196;19.638;2023-03-01T13:42:46;19.40;;;9.40;;
68379;SDS011;57711;53.196;19.638;2023-03-01T13:45:38;19.90;;;10.00;;
68379;SDS011;57711;53.196;19.638;2023-03-01T13:48:18;30.80;;;15.40;;
68379;SDS011;57711;53.196;19.638;2023-03-01T13:50:51;20.30;;;10.40;;
68379;SDS011;57711;53.196;19.638;2023-03-01T13:53:23;24.90;;;10.90;;
68379;SDS011;57711;53.196;19.638;2023-03-01T13:58:46;19.80;;;10.10;;
68379;SDS011;57711;53.196;19.638;2023-03-01T14:01:27;19.30;;;9.90;;
68379;SDS011;57711;53.196;19.638;2023-03-01T14:03:57;21.30;;;10.50;;
68379;SDS011;57711;53.196;19.638;2023-03-01T14:06:25;22.00;;;10.90;;
68379;SDS011;57711;53.196;19.638;2023-03-01T14:09:17;21.50;;;10.90;;
68379;SDS011;57711;53.196;19.638;2023-03-01T14:22:45;40.50;;;13.60;;
68379;SDS011;57711;53.196;19.638;2023-03-01T14:27:58;19.90;;;10.80;;
68379;SDS011;57711;53.196;19.638;2023-03-01T14:30:32;22.30;;;10.10;;
68379;SDS011;57711;53.196;19.638;2023-03-01T14:33:04;22.40;;;10.50;;
68379;SDS011;57711;53.196;19.638;2023-03-01T14:35:34;24.10;;;9.80;;
68379;SDS011;57711;53.196;19.638;2023-03-01T14:38:03;22.30;;;9.50;;
68379;SDS011;57711;53.196;19.638;2023-03-01T14:40:32;16.90;;;9.70;;
68379;SDS011;57711;53.196;19.638;2023-03-01T14:43:02;14.60;;;8.80;;
68379;SDS011;57711;53.196;19.638;2023-03-01T14:45:37;16.90;;;9.30;;
68379;SDS011;57711;53.196;19.638;2023-03-01T14:48:05;17.90;;;9.70;;
68379;SDS011;57711;53.196;19.638;2023-03-01T14:50:34;19.90;;;10.10;;
68379;SDS011;57711;53.196;19.638;2023-03-01T14:53:11;219.20;;;62.60;;
68379;SDS011;57711;53.196;19.638;2023-03-01T14:55:46;41.10;;;18.20;;
68379;SDS011;57711;53.196;19.638;2023-03-01T14:58:18;29.20;;;13.90;;
68379;SDS011;57711;53.196;19.638;2023-03-01T15:00:49;30.50;;;13.10;;
68379;SDS011;57711;53.196;19.638;2023-03-01T15:03:31;24.20;;;12.10;;
68379;SDS011;57711;53.196;19.638;2023-03-01T15:06:01;24.00;;;11.00;;
68379;SDS011;57711;53.196;19.638;2023-03-01T15:08:29;24.80;;;12.20;;
68379;SDS011;57711;53.196;19.638;2023-03-01T15:13:51;33.10;;;16.30;;
68379;SDS011;57711;53.196;19.638;2023-03-01T15:16:21;37.60;;;21.20;;
68379;SDS011;57711;53.196;19.638;2023-03-01T15:21:27;27.90;;;16.60;;
68379;SDS011;57711;53.196;19.638;2023-03-01T15:24:04;23.10;;;13.20;;
68379;SDS011;57711;53.196;19.638;2023-03-01T15:26:42;29.90;;;17.00;;
68379;SDS011;57711;53.196;19.638;2023-03-01T15:29:15;20.90;;;12.30;;
68379;SDS011;57711;53.196;19.638;2023-03-01T15:31:57;20.70;;;11.10;;
68379;SDS011;57711;53.196;19.638;2023-03-01T15:34:27;22.90;;;13.90;;
68379;SDS011;57711;53.196;19.638;2023-03-01T15:37:00;27.80;;;13.70;;
68379;SDS011;57711;53.196;19.638;2023-03-01T15:42:35;25.80;;;12.20;;
68379;SDS011;57711;53.196;19.638;2023-03-01T15:47:47;21.50;;;10.90;;
68379;SDS011;57711;53.196;19.638;2023-03-01T15:50:23;20.70;;;10.80;;
68379;SDS011;57711;53.196;19.638;2023-03-01T15:52:55;34.50;;;12.70;;
68379;SDS011;57711;53.196;19.638;2023-03-01T15:55:24;42.30;;;16.50;;
68379;SDS011;57711;53.196;19.638;2023-03-01T15:58:00;62.30;;;40.60;;
68379;SDS011;57711;53.196;19.638;2023-03-01T16:00:30;58.00;;;33.60;;
68379;SDS011;57711;53.196;19.638;2023-03-01T16:02:58;134.50;;;57.50;;
68379;SDS011;57711;53.196;19.638;2023-03-01T16:05:28;195.70;;;102.20;;
68379;SDS011;57711;53.196;19.638;2023-03-01T16:07:58;142.50;;;76.10;;
68379;SDS011;57711;53.196;19.638;2023-03-01T16:10:25;97.40;;;47.40;;
68379;SDS011;57711;53.196;19.638;2023-03-01T16:12:52;53.10;;;28.50;;
68379;SDS011;57711;53.196;19.638;2023-03-01T16:15:21;53.40;;;27.40;;
68379;SDS011;57711;53.196;19.638;2023-03-01T16:17:50;40.90;;;22.00;;
68379;SDS011;57711;53.196;19.638;2023-03-01T16:20:21;50.80;;;20.70;;
68379;SDS011;57711;53.196;19.638;2023-03-01T16:22:58;45.20;;;21.80;;
68379;SDS011;57711;53.196;19.638;2023-03-01T16:25:29;62.10;;;22.70;;
68379;SDS011;57711;53.196;19.638;2023-03-01T16:27:59;62.10;;;25.40;;
68379;SDS011;57711;53.196;19.638;2023-03-01T16:30:30;55.80;;;25.40;;
68379;SDS011;57711;53.196;19.638;2023-03-01T16:32:57;60.90;;;26.20;;
68379;SDS011;57711;53.196;19.638;2023-03-01T16:35:25;69.60;;;32.10;;
68379;SDS011;57711;53.196;19.638;2023-03-01T16:37:52;75.40;;;34.70;;
68379;SDS011;57711;53.196;19.638;2023-03-01T16:40:21;77.50;;;33.90;;
68379;SDS011;57711;53.196;19.638;2023-03-01T16:42:51;57.00;;;26.50;;
68379;SDS011;57711;53.196;19.638;2023-03-01T16:45:18;55.40;;;21.10;;
68379;SDS011;57711;53.196;19.638;2023-03-01T16:47:51;42.50;;;20.20;;
68379;SDS011;57711;53.196;19.638;2023-03-01T16:50:22;46.70;;;18.20;;
68379;SDS011;57711;53.196;19.638;2023-03-01T16:52:49;48.20;;;20.30;;